Time;durP1;ratioP1;P1;durP2;ratioP2;P2;SDS_P1;SDS_P2;PMS_P1;PMS_P2;Temp;Humidity;BMP_temperature;BMP_pressure;BME280_temperature;BME280_humidity;BME280_pressure;Samples;Min_cycle;Max_cycle;Signal;HPM_P1;HPM_P2
2022/03/13 00:00:38;;;;;;;25.10;14.60;;;8.40;91.80;;;;;;5097380;28;20446;-53
2022/03/13 00:03:06;;;;;;;22.77;15.55;;;8.50;91.90;;;;;;5087798;28;20112;-56
2022/03/13 00:05:36;;;;;;;22.48;14.32;;;8.40;91.80;;;;;;5088454;28;20345;-55
2022/03/13 00:08:14;;;;;;;19.90;14.43;;;8.40;91.80;;;;;;5087093;28;20078;-55
2022/03/13 00:10:39;;;;;;;20.50;14.80;;;8.50;91.80;;;;;;5099268;28;20118;-54
2022/03/13 00:13:05;;;;;;;19.77;14.93;;;8.40;91.80;;;;;;5088278;28;20127;-53
2022/03/13 00:15:38;;;;;;;20.80;14.10;;;8.50;91.80;;;;;;5070766;28;20040;-55
2022/03/13 00:18:03;;;;;;;19.70;13.50;;;8.50;91.70;;;;;;5096831;28;20116;-55
2022/03/13 00:20:32;;;;;;;18.92;14.80;;;8.50;91.70;;;;;;5089421;28;20044;-55
2022/03/13 00:22:58;;;;;;;21.80;15.13;;;8.50;91.70;;;;;;5091959;28;20115;-52
2022/03/13 00:25:25;;;;;;;20.17;14.07;;;8.50;91.60;;;;;;5073052;28;20127;-56
2022/03/13 00:27:51;;;;;;;20.88;14.30;;;8.50;91.70;;;;;;5086534;28;20067;-53
2022/03/13 00:30:18;;;;;;;20.08;14.93;;;8.50;91.70;;;;;;5093775;28;20047;-54
2022/03/13 00:32:44;;;;;;;18.40;14.20;;;8.50;91.80;;;;;;5095062;28;20104;-55
2022/03/13 00:35:11;;;;;;;17.92;13.45;;;8.50;91.70;;;;;;5089594;28;20047;-53
2022/03/13 00:37:37;;;;;;;18.00;13.80;;;8.50;91.70;;;;;;5090478;28;20071;-53
2022/03/13 00:40:04;;;;;;;26.75;15.60;;;8.50;91.80;;;;;;5101763;28;20379;-55
2022/03/13 00:42:29;;;;;;;19.73;14.88;;;8.50;91.90;;;;;;5091514;28;20548;-52
2022/03/13 00:44:56;;;;;;;20.45;14.23;;;8.50;91.90;;;;;;5097792;28;20039;-54
2022/03/13 00:47:22;;;;;;;20.25;14.55;;;8.50;91.80;;;;;;5088227;28;20043;-52
2022/03/13 00:49:49;;;;;;;19.65;14.52;;;8.50;91.80;;;;;;5087650;28;20032;-55
2022/03/13 00:52:15;;;;;;;19.80;14.30;;;8.50;91.90;;;;;;5091729;28;20051;-56
2022/03/13 00:54:41;;;;;;;20.48;14.38;;;8.50;91.80;;;;;;5092148;28;20043;-55
2022/03/13 00:57:07;;;;;;;19.63;14.25;;;8.40;91.80;;;;;;5089486;28;20096;-56
2022/03/13 00:59:33;;;;;;;19.50;14.75;;;8.40;91.90;;;;;;5097597;28;20329;-55
2022/03/13 01:01:58;;;;;;;20.00;14.45;;;8.50;92.00;;;;;;5097975;28;20035;-54
2022/03/13 01:04:25;;;;;;;20.30;14.18;;;8.40;91.90;;;;;;5096965;28;20056;-52
2022/03/13 01:06:51;;;;;;;20.10;15.23;;;8.40;91.90;;;;;;5090328;28;20047;-56
2022/03/13 01:09:17;;;;;;;19.75;15.23;;;8.30;92.00;;;;;;5097109;28;20063;-52
2022/03/13 01:11:43;;;;;;;20.30;14.90;;;8.30;92.10;;;;;;5090699;28;20031;-55
2022/03/13 01:14:09;;;;;;;19.98;15.05;;;8.40;92.00;;;;;;5096385;28;20231;-55
2022/03/13 01:16:40;;;;;;;21.20;15.13;;;8.40;92.10;;;;;;5096678;28;20058;-56
2022/03/13 01:19:07;;;;;;;22.77;15.93;;;8.40;92.30;;;;;;5093893;28;20447;-53
2022/03/13 01:21:38;;;;;;;21.23;15.25;;;8.40;92.10;;;;;;5091022;28;20452;-57
2022/03/13 01:24:10;;;;;;;19.90;14.38;;;8.40;92.10;;;;;;5077898;28;20122;-53
2022/03/13 01:26:37;;;;;;;21.98;14.98;;;8.50;92.20;;;;;;5095225;28;20050;-52
2022/03/13 01:29:14;;;;;;;24.35;15.60;;;8.50;92.10;;;;;;5101417;28;20047;-54
2022/03/13 01:31:45;;;;;;;21.23;14.63;;;8.50;92.20;;;;;;5092137;28;20363;-55
2022/03/13 01:34:12;;;;;;;22.25;15.68;;;8.50;92.20;;;;;;5095061;28;20042;-54
2022/03/13 01:36:38;;;;;;;19.02;15.05;;;8.60;92.20;;;;;;5089396;28;20406;-56
2022/03/13 01:39:06;;;;;;;23.10;15.65;;;8.60;92.20;;;;;;5086491;28;20048;-57
2022/03/13 01:41:34;;;;;;;21.95;15.07;;;8.60;92.30;;;;;;5099689;28;20391;-54
2022/03/13 01:44:00;;;;;;;23.20;15.43;;;8.60;92.10;;;;;;5083829;28;20048;-55
2022/03/13 01:46:27;;;;;;;19.48;14.63;;;8.60;92.10;;;;;;5085945;28;20537;-56
2022/03/13 01:49:05;;;;;;;21.13;14.90;;;8.60;92.00;;;;;;5095524;28;20509;-56
2022/03/13 01:51:33;;;;;;;24.27;15.88;;;8.70;92.10;;;;;;5087799;28;20260;-54
2022/03/13 01:54:02;;;;;;;21.17;15.85;;;8.80;92.10;;;;;;5089880;28;20145;-58
2022/03/13 01:56:30;;;;;;;20.67;15.07;;;8.70;92.00;;;;;;5096928;28;20131;-56
2022/03/13 01:58:56;;;;;;;21.35;16.23;;;8.70;92.00;;;;;;5097156;28;20046;-58
2022/03/13 02:01:25;;;;;;;20.08;14.82;;;8.70;92.00;;;;;;5093686;28;20774;-53
2022/03/13 02:03:51;;;;;;;21.38;15.45;;;8.80;92.00;;;;;;5095966;28;20554;-56
2022/03/13 02:06:19;;;;;;;21.42;14.90;;;8.70;92.00;;;;;;5041945;22;20438;-57
2022/03/13 02:08:45;;;;;;;21.15;15.70;;;8.70;92.10;;;;;;5045183;28;20059;-56
2022/03/13 02:11:16;;;;;;;21.80;15.77;;;8.70;92.10;;;;;;5041818;28;21079;-57
2022/03/13 02:13:43;;;;;;;19.75;14.65;;;8.70;92.00;;;;;;5027643;28;20036;-56
2022/03/13 02:16:09;;;;;;;21.02;16.17;;;8.70;92.10;;;;;;5028878;28;20078;-55
2022/03/13 02:18:35;;;;;;;19.38;14.80;;;8.70;92.10;;;;;;5056959;28;20109;-57
2022/03/13 02:21:01;;;;;;;21.52;15.43;;;8.70;92.20;;;;;;5045744;28;20040;-56
2022/03/13 02:23:28;;;;;;;19.17;14.80;;;8.70;92.20;;;;;;5044750;28;20127;-57
2022/03/13 02:26:00;;;;;;;21.20;15.15;;;8.70;92.10;;;;;;5041896;28;20116;-56
2022/03/13 02:28:29;;;;;;;19.23;13.88;;;8.70;92.10;;;;;;5039171;28;20047;-56
2022/03/13 02:31:11;;;;;;;20.23;15.20;;;8.70;92.20;;;;;;5062123;28;20399;-56
2022/03/13 02:33:38;;;;;;;22.30;16.38;;;8.70;92.20;;;;;;5048807;28;20051;-57
2022/03/13 02:36:12;;;;;;;20.92;14.35;;;8.60;92.30;;;;;;5066238;28;20036;-55
2022/03/13 02:38:38;;;;;;;22.15;16.60;;;8.70;92.30;;;;;;5045531;28;20082;-55
2022/03/13 02:41:05;;;;;;;22.33;15.40;;;8.70;92.30;;;;;;5045092;28;20096;-57
2022/03/13 02:43:31;;;;;;;21.30;15.20;;;8.60;92.20;;;;;;5038775;28;20486;-57
2022/03/13 02:45:56;;;;;;;18.63;14.40;;;8.70;92.30;;;;;;5063059;28;20056;-57
2022/03/13 02:48:22;;;;;;;19.88;14.55;;;8.60;92.30;;;;;;5050076;28;20056;-56
2022/03/13 02:50:49;;;;;;;21.48;15.10;;;8.60;92.40;;;;;;5070241;28;20036;-55
2022/03/13 02:53:18;;;;;;;18.83;15.23;;;8.60;92.40;;;;;;5031928;28;20112;-56
2022/03/13 02:55:44;;;;;;;22.50;14.40;;;8.60;92.50;;;;;;5046276;28;20382;-56
2022/03/13 02:58:11;;;;;;;22.63;15.40;;;8.60;92.40;;;;;;5049510;28;20194;-57
2022/03/13 03:00:50;;;;;;;23.15;14.55;;;8.70;92.40;;;;;;5044894;28;20036;-57
2022/03/13 03:03:19;;;;;;;21.42;15.85;;;8.70;92.50;;;;;;5048084;28;20044;-57
2022/03/13 03:05:45;;;;;;;20.80;15.10;;;8.60;92.50;;;;;;5035021;28;20403;-57
2022/03/13 03:08:12;;;;;;;21.92;15.18;;;8.60;92.40;;;;;;5049244;28;20147;-55
2022/03/13 03:10:38;;;;;;;19.92;15.40;;;8.60;92.50;;;;;;5048746;28;20051;-57
2022/03/13 03:13:06;;;;;;;21.45;15.45;;;8.70;92.50;;;;;;5029558;28;20238;-56
2022/03/13 03:15:32;;;;;;;22.00;16.05;;;8.70;92.40;;;;;;5031328;28;20047;-57
2022/03/13 03:17:58;;;;;;;19.77;13.75;;;8.70;92.40;;;;;;5041980;28;20402;-57
2022/03/13 03:20:23;;;;;;;21.42;13.88;;;8.70;92.50;;;;;;5044665;28;20232;-56
2022/03/13 03:22:51;;;;;;;18.52;13.95;;;8.70;92.50;;;;;;5041432;28;20174;-56
2022/03/13 03:25:25;;;;;;;19.63;12.82;;;8.70;92.30;;;;;;5041597;28;20483;-55
2022/03/13 03:27:52;;;;;;;19.67;13.77;;;8.70;92.30;;;;;;5047791;28;20052;-57
2022/03/13 03:30:19;;;;;;;21.63;14.65;;;8.70;92.40;;;;;;5043207;28;20033;-56
2022/03/13 03:32:45;;;;;;;22.40;14.27;;;8.70;92.40;;;;;;5060306;28;20075;-57
2022/03/13 03:35:11;;;;;;;17.17;12.68;;;8.70;92.30;;;;;;5037955;28;20037;-56
2022/03/13 03:37:37;;;;;;;19.23;14.15;;;8.70;92.30;;;;;;5049489;28;20032;-56
2022/03/13 03:40:05;;;;;;;18.65;13.93;;;8.70;92.30;;;;;;5031616;28;20048;-57
2022/03/13 03:42:31;;;;;;;19.83;13.68;;;8.70;92.30;;;;;;5032291;28;20045;-57
2022/03/13 03:44:57;;;;;;;18.20;12.82;;;8.80;92.40;;;;;;5041592;28;20036;-57
2022/03/13 03:47:23;;;;;;;18.88;13.98;;;8.80;92.30;;;;;;5006133;28;20660;-57
2022/03/13 03:49:48;;;;;;;17.33;12.68;;;8.70;92.30;;;;;;5019414;28;20076;-57
2022/03/13 03:52:14;;;;;;;16.73;12.27;;;8.80;92.30;;;;;;5025171;28;20411;-57
2022/03/13 03:54:40;;;;;;;18.38;13.25;;;8.80;92.40;;;;;;5020816;28;20131;-57
2022/03/13 03:57:06;;;;;;;20.27;13.25;;;8.80;92.40;;;;;;5032630;28;20579;-56
2022/03/13 03:59:31;;;;;;;19.33;13.35;;;8.80;92.40;;;;;;5040424;28;20045;-58
2022/03/13 04:01:57;;;;;;;20.85;11.93;;;8.80;92.40;;;;;;5023762;28;20293;-55
2022/03/13 04:04:23;;;;;;;18.67;12.38;;;8.80;92.40;;;;;;5042525;28;20051;-56
2022/03/13 04:06:49;;;;;;;16.67;13.18;;;8.70;92.40;;;;;;5061069;28;20463;-56
2022/03/13 04:09:15;;;;;;;19.02;14.25;;;8.70;92.40;;;;;;5047081;28;20048;-57
2022/03/13 04:11:40;;;;;;;19.42;12.68;;;8.70;92.50;;;;;;5043342;28;20048;-57
2022/03/13 04:14:08;;;;;;;20.30;13.27;;;8.70;92.50;;;;;;5020357;28;20056;-57
2022/03/13 04:16:34;;;;;;;19.48;12.48;;;8.70;92.40;;;;;;5046926;28;20495;-57
2022/03/13 04:19:00;;;;;;;21.40;13.43;;;8.70;92.50;;;;;;5049432;28;20045;-56
2022/03/13 04:21:27;;;;;;;17.85;11.93;;;8.70;92.60;;;;;;5039075;28;20044;-56
2022/03/13 04:23:53;;;;;;;16.25;12.07;;;8.70;92.60;;;;;;5059681;28;20029;-54
2022/03/13 04:26:22;;;;;;;18.98;12.55;;;8.70;92.50;;;;;;5032533;28;20041;-56
2022/03/13 04:28:49;;;;;;;20.05;13.70;;;8.70;92.50;;;;;;5046059;28;20044;-57
2022/03/13 04:31:16;;;;;;;18.73;12.50;;;8.60;92.60;;;;;;5044107;28;20051;-56
2022/03/13 04:33:42;;;;;;;18.05;13.27;;;8.60;92.60;;;;;;5023231;28;20401;-56
2022/03/13 04:36:12;;;;;;;16.90;12.43;;;8.60;92.70;;;;;;5045531;28;20127;-56
2022/03/13 04:38:38;;;;;;;17.77;13.30;;;8.60;92.70;;;;;;5031824;28;20514;-56
2022/03/13 04:41:04;;;;;;;19.42;12.93;;;8.60;92.80;;;;;;5039944;28;20666;-57
2022/03/13 04:43:30;;;;;;;17.33;12.77;;;8.60;92.70;;;;;;5056948;28;20045;-57
2022/03/13 04:45:55;;;;;;;17.38;13.52;;;8.50;92.80;;;;;;5029765;28;20048;-57
2022/03/13 04:48:21;;;;;;;18.00;13.85;;;8.50;92.80;;;;;;5046180;28;20048;-57
2022/03/13 04:50:47;;;;;;;15.05;11.65;;;8.50;92.80;;;;;;5051204;28;20041;-57
2022/03/13 04:53:13;;;;;;;19.40;12.85;;;8.50;92.90;;;;;;5044189;28;20098;-56
2022/03/13 04:55:40;;;;;;;18.95;14.27;;;8.50;93.00;;;;;;5042853;28;20067;-57
2022/03/13 04:58:08;;;;;;;19.77;13.70;;;8.40;93.00;;;;;;5036308;28;20048;-56
2022/03/13 05:00:38;;;;;;;21.13;13.95;;;8.40;93.10;;;;;;5010679;28;20265;-56
2022/03/13 05:03:05;;;;;;;20.08;13.63;;;8.40;93.10;;;;;;5035329;28;20044;-56
2022/03/13 05:05:34;;;;;;;18.58;13.70;;;8.40;93.50;;;;;;5025813;28;20115;-55
2022/03/13 05:08:04;;;;;;;19.20;13.75;;;8.40;93.40;;;;;;5019120;28;20155;-56
2022/03/13 05:10:36;;;;;;;17.92;14.13;;;8.30;93.50;;;;;;5025593;28;20052;-57
2022/03/13 05:13:03;;;;;;;18.25;13.77;;;8.30;93.50;;;;;;5019650;28;20626;-56
2022/03/13 05:15:29;;;;;;;21.92;15.20;;;8.30;93.50;;;;;;5026237;28;20690;-56
2022/03/13 05:17:55;;;;;;;20.38;13.95;;;8.40;93.50;;;;;;5017221;28;20131;-57
2022/03/13 05:20:20;;;;;;;21.13;14.05;;;8.30;93.50;;;;;;5020647;28;20045;-56
2022/03/13 05:22:46;;;;;;;21.85;14.55;;;8.40;93.50;;;;;;5008922;28;20040;-54
2022/03/13 05:25:12;;;;;;;19.75;14.57;;;8.30;93.40;;;;;;5017354;28;20040;-55
2022/03/13 05:27:38;;;;;;;21.42;15.23;;;8.30;93.40;;;;;;5021955;28;20049;-56
2022/03/13 05:30:04;;;;;;;19.50;14.40;;;8.40;93.40;;;;;;5036937;28;20524;-55
2022/03/13 05:32:30;;;;;;;23.00;14.88;;;8.30;93.30;;;;;;5032962;28;20234;-53
2022/03/13 05:34:57;;;;;;;20.40;15.10;;;8.30;93.20;;;;;;5047318;28;20105;-56
2022/03/13 05:37:24;;;;;;;22.92;15.82;;;8.30;93.10;;;;;;5037434;28;20572;-56
2022/03/13 05:39:50;;;;;;;19.63;15.30;;;8.30;93.10;;;;;;5042262;28;20496;-53
2022/03/13 05:42:16;;;;;;;19.05;14.50;;;8.30;93.10;;;;;;5040308;28;20040;-53
2022/03/13 05:44:42;;;;;;;21.77;15.35;;;8.30;93.10;;;;;;5024476;28;20036;-56
2022/03/13 05:47:07;;;;;;;19.98;15.10;;;8.30;93.10;;;;;;5021997;28;20044;-55
2022/03/13 05:49:34;;;;;;;20.27;14.52;;;8.30;93.10;;;;;;5065550;28;20043;-55
2022/03/13 05:52:00;;;;;;;20.65;14.65;;;8.30;93.10;;;;;;5030104;28;20498;-56
2022/03/13 05:54:26;;;;;;;20.83;15.90;;;8.30;93.00;;;;;;5029787;28;20052;-57
2022/03/13 05:56:52;;;;;;;22.52;15.52;;;8.30;93.00;;;;;;5058867;28;20036;-53
2022/03/13 05:59:18;;;;;;;21.38;15.55;;;8.30;92.90;;;;;;5042032;28;20037;-53
2022/03/13 06:01:44;;;;;;;21.65;15.25;;;8.30;92.90;;;;;;5037954;28;20037;-58
2022/03/13 06:04:09;;;;;;;22.58;15.48;;;8.30;93.10;;;;;;5063927;28;20075;-56
2022/03/13 06:06:35;;;;;;;18.83;15.38;;;8.30;92.80;;;;;;5024390;28;20038;-56
2022/03/13 06:09:01;;;;;;;20.35;15.52;;;8.30;92.80;;;;;;5043335;28;20048;-57
2022/03/13 06:11:27;;;;;;;24.60;15.75;;;8.30;92.70;;;;;;5041239;28;20063;-55
2022/03/13 06:13:52;;;;;;;21.55;15.48;;;8.30;92.60;;;;;;5045414;28;20360;-58
2022/03/13 06:16:20;;;;;;;20.30;13.65;;;8.30;92.60;;;;;;5043446;28;20380;-53
2022/03/13 06:18:46;;;;;;;23.70;15.50;;;8.30;92.50;;;;;;5007973;28;20499;-56
2022/03/13 06:21:14;;;;;;;19.52;14.60;;;8.30;92.50;;;;;;5062971;28;20040;-53
2022/03/13 06:23:39;;;;;;;19.10;13.80;;;8.30;92.50;;;;;;5045366;28;20482;-55
2022/03/13 06:26:07;;;;;;;22.10;14.98;;;8.30;92.40;;;;;;5046424;28;20037;-56
2022/03/13 06:28:32;;;;;;;20.63;15.25;;;8.30;92.50;;;;;;5036430;28;20040;-57
2022/03/13 06:30:59;;;;;;;23.88;14.98;;;8.30;92.50;;;;;;5039021;28;20048;-55
2022/03/13 06:33:26;;;;;;;19.60;15.05;;;8.20;92.40;;;;;;5025554;28;20074;-56
2022/03/13 06:35:51;;;;;;;23.02;14.77;;;8.30;92.50;;;;;;5010007;28;20032;-55
2022/03/13 06:38:17;;;;;;;19.83;15.18;;;8.20;92.50;;;;;;5032064;28;20460;-53
2022/03/13 06:40:43;;;;;;;22.52;15.32;;;8.20;92.50;;;;;;4999163;28;20381;-56
2022/03/13 06:43:08;;;;;;;20.10;15.75;;;8.20;92.50;;;;;;5011736;28;20075;-55
2022/03/13 06:45:34;;;;;;;21.30;15.82;;;8.20;92.70;;;;;;5021753;28;20051;-52
2022/03/13 06:48:00;;;;;;;22.40;16.20;;;8.20;92.80;;;;;;5010093;28;20323;-54
2022/03/13 06:50:26;;;;;;;21.27;15.93;;;8.20;92.80;;;;;;5014249;28;20049;-55
2022/03/13 06:52:53;;;;;;;21.17;14.25;;;8.20;92.80;;;;;;5036541;28;20055;-57
2022/03/13 06:55:21;;;;;;;22.63;15.15;;;8.20;92.80;;;;;;4998623;28;20040;-53
2022/03/13 06:57:49;;;;;;;21.92;15.73;;;8.20;92.90;;;;;;5025755;28;20545;-56
2022/03/13 07:00:16;;;;;;;20.63;15.90;;;8.10;92.90;;;;;;5002771;28;20507;-52
2022/03/13 07:02:42;;;;;;;21.13;15.77;;;8.10;92.90;;;;;;5019840;28;20045;-55
2022/03/13 07:05:08;;;;;;;21.08;15.45;;;8.10;93.00;;;;;;5022436;28;20041;-57
2022/03/13 07:07:34;;;;;;;20.65;15.68;;;8.10;92.90;;;;;;5032326;28;20032;-53
2022/03/13 07:10:00;;;;;;;24.90;15.70;;;8.20;92.90;;;;;;5026978;28;20040;-52
2022/03/13 07:12:26;;;;;;;21.08;15.40;;;8.10;92.90;;;;;;5028744;28;20534;-53
2022/03/13 07:14:57;;;;;;;22.50;15.68;;;8.20;92.90;;;;;;5060495;28;20032;-55
2022/03/13 07:17:24;;;;;;;21.13;14.80;;;8.10;92.70;;;;;;5034719;28;20041;-56
2022/03/13 07:19:50;;;;;;;20.23;14.88;;;8.20;92.70;;;;;;5040334;28;20455;-52
2022/03/13 07:22:16;;;;;;;22.20;16.05;;;8.10;92.60;;;;;;5041138;28;20040;-55
2022/03/13 07:24:46;;;;;;;21.60;14.70;;;8.20;92.60;;;;;;5026097;28;20041;-53
2022/03/13 07:27:13;;;;;;;21.13;15.35;;;8.20;92.50;;;;;;5042194;28;20057;-56
2022/03/13 07:29:39;;;;;;;20.08;14.35;;;8.20;92.40;;;;;;5043796;28;20056;-55
2022/03/13 07:32:05;;;;;;;23.02;15.80;;;8.20;92.40;;;;;;5060050;28;20277;-56
2022/03/13 07:34:31;;;;;;;20.38;15.27;;;8.20;92.40;;;;;;5044379;28;20037;-55
2022/03/13 07:36:57;;;;;;;20.00;14.57;;;8.20;92.30;;;;;;5063239;28;20094;-56
2022/03/13 07:39:24;;;;;;;19.25;14.65;;;8.20;92.20;;;;;;5047983;28;20040;-54
2022/03/13 07:41:51;;;;;;;21.40;14.85;;;8.20;92.10;;;;;;5049857;28;20063;-53
2022/03/13 07:44:17;;;;;;;19.13;13.85;;;8.20;92.00;;;;;;5059306;28;20067;-52
2022/03/13 07:46:43;;;;;;;23.50;14.80;;;8.20;91.90;;;;;;5044149;28;20056;-55
2022/03/13 07:49:09;;;;;;;17.63;13.98;;;8.20;91.80;;;;;;5059758;28;20040;-54
2022/03/13 07:51:35;;;;;;;21.85;14.93;;;8.20;91.60;;;;;;5046651;28;20416;-56
2022/03/13 07:54:02;;;;;;;19.80;14.93;;;8.20;91.50;;;;;;5067955;28;20177;-55
2022/03/13 07:56:29;;;;;;;20.92;14.32;;;8.20;91.50;;;;;;5042122;28;20122;-57
2022/03/13 07:58:55;;;;;;;17.77;13.27;;;8.30;91.30;;;;;;5048104;28;20449;-52
2022/03/13 08:01:21;;;;;;;20.55;14.48;;;8.30;91.10;;;;;;5045285;28;20043;-54
2022/03/13 08:03:47;;;;;;;20.98;14.88;;;8.30;91.10;;;;;;5065633;28;20025;-52
2022/03/13 08:06:13;;;;;;;18.80;13.07;;;8.30;90.80;;;;;;5052957;28;20048;-56
2022/03/13 08:08:39;;;;;;;18.13;13.90;;;8.30;90.80;;;;;;5044854;28;20039;-55
2022/03/13 08:11:05;;;;;;;20.30;15.35;;;8.30;90.60;;;;;;5031855;28;20406;-56
2022/03/13 08:13:31;;;;;;;20.65;13.68;;;8.30;90.60;;;;;;5046679;28;20043;-55
2022/03/13 08:15:56;;;;;;;18.98;13.75;;;8.40;90.60;;;;;;5038694;28;20051;-55
2022/03/13 08:18:22;;;;;;;18.75;13.40;;;8.40;90.30;;;;;;5029007;28;20041;-55
2022/03/13 08:20:48;;;;;;;18.85;14.57;;;8.40;90.40;;;;;;5038272;28;20051;-55
2022/03/13 08:23:14;;;;;;;18.63;13.52;;;8.40;90.10;;;;;;5050337;28;20119;-56
2022/03/13 08:25:40;;;;;;;19.70;13.98;;;8.40;90.10;;;;;;5047555;28;20395;-54
2022/03/13 08:28:06;;;;;;;16.77;12.68;;;8.50;90.00;;;;;;5062659;28;20040;-54
2022/03/13 08:30:33;;;;;;;17.27;13.18;;;8.50;89.70;;;;;;5047038;28;20499;-54
2022/03/13 08:32:59;;;;;;;17.52;13.23;;;8.50;89.30;;;;;;5042449;28;20051;-55
2022/03/13 08:35:25;;;;;;;20.35;13.05;;;8.60;89.10;;;;;;5048900;28;20044;-55
2022/03/13 08:37:52;;;;;;;18.77;12.45;;;8.60;89.10;;;;;;5055415;28;20037;-55
2022/03/13 08:40:18;;;;;;;17.73;12.40;;;8.60;88.00;;;;;;5040503;28;20049;-54
2022/03/13 08:42:44;;;;;;;18.75;13.10;;;8.60;87.60;;;;;;5061413;28;20059;-53
2022/03/13 08:45:11;;;;;;;17.95;12.13;;;8.70;87.30;;;;;;5042475;28;20040;-56
2022/03/13 08:47:38;;;;;;;16.42;13.23;;;8.80;86.90;;;;;;5049114;28;20068;-53
2022/03/13 08:50:06;;;;;;;17.85;13.15;;;8.90;86.30;;;;;;5044435;28;20061;-57
2022/03/13 08:52:31;;;;;;;17.48;13.00;;;9.00;86.10;;;;;;5038552;28;20079;-53
2022/03/13 08:54:57;;;;;;;19.83;13.13;;;9.20;87.00;;;;;;5028072;28;20072;-56
2022/03/13 08:57:23;;;;;;;20.30;13.20;;;9.30;86.40;;;;;;5040822;28;20043;-55
2022/03/13 08:59:49;;;;;;;16.63;12.07;;;9.40;85.50;;;;;;5027226;28;20040;-55
2022/03/13 09:02:15;;;;;;;18.00;13.05;;;9.50;85.50;;;;;;5043289;28;20135;-53
2022/03/13 09:04:41;;;;;;;20.10;12.77;;;9.70;84.20;;;;;;5065977;28;20075;-53
2022/03/13 09:07:11;;;;;;;18.27;12.73;;;9.80;83.30;;;;;;5035824;28;20106;-56
2022/03/13 09:09:37;;;;;;;16.85;12.48;;;9.90;83.50;;;;;;5026056;28;20079;-52
2022/03/13 09:12:06;;;;;;;17.27;12.45;;;10.00;83.10;;;;;;5045209;28;20197;-53
2022/03/13 09:14:34;;;;;;;16.27;11.82;;;10.10;82.10;;;;;;5045905;28;20055;-55
2022/03/13 09:17:01;;;;;;;15.75;12.18;;;10.20;82.30;;;;;;5042412;28;20044;-54
2022/03/13 09:19:27;;;;;;;19.15;12.30;;;10.30;81.40;;;;;;5046965;28;20094;-52
2022/03/13 09:21:53;;;;;;;16.60;12.07;;;10.30;80.70;;;;;;5036005;28;20119;-53
2022/03/13 09:24:18;;;;;;;17.83;11.90;;;10.30;80.10;;;;;;5043511;28;20123;-54
2022/03/13 09:26:45;;;;;;;17.60;12.63;;;10.40;80.70;;;;;;5047177;28;20494;-51
2022/03/13 09:29:11;;;;;;;19.15;12.90;;;10.40;80.40;;;;;;5028619;28;20539;-54
2022/03/13 09:31:37;;;;;;;17.73;12.90;;;10.40;80.20;;;;;;5047626;28;20047;-54
2022/03/13 09:34:03;;;;;;;15.93;12.00;;;10.50;80.10;;;;;;5044131;28;20699;-54
2022/03/13 09:36:29;;;;;;;18.48;12.30;;;10.50;80.20;;;;;;5028714;28;20041;-57
2022/03/13 09:38:55;;;;;;;17.05;12.32;;;10.60;79.10;;;;;;5030014;28;20036;-53
2022/03/13 09:41:21;;;;;;;16.08;12.30;;;10.70;79.70;;;;;;5041009;28;20102;-56
2022/03/13 09:43:46;;;;;;;18.77;12.13;;;10.80;79.40;;;;;;5045627;28;20075;-54
2022/03/13 09:46:16;;;;;;;17.92;12.95;;;10.90;78.50;;;;;;5062911;28;20068;-52
2022/03/13 09:48:42;;;;;;;18.77;13.10;;;11.00;79.20;;;;;;5032039;28;20544;-53
2022/03/13 09:51:09;;;;;;;17.77;12.30;;;11.20;79.20;;;;;;5057812;28;20143;-57
2022/03/13 09:53:35;;;;;;;15.38;12.38;;;11.50;78.80;;;;;;5061351;28;20330;-54
2022/03/13 09:56:03;;;;;;;17.80;12.50;;;11.80;78.50;;;;;;5040571;28;20439;-55
2022/03/13 09:58:30;;;;;;;16.15;12.73;;;12.00;76.60;;;;;;5066709;28;20036;-53
2022/03/13 10:00:57;;;;;;;16.50;12.95;;;12.20;75.90;;;;;;5039985;28;20044;-55
2022/03/13 10:03:22;;;;;;;17.58;12.90;;;12.30;75.30;;;;;;5030187;28;20052;-55
2022/03/13 10:05:50;;;;;;;18.88;13.07;;;12.40;74.10;;;;;;5027955;28;20502;-52
2022/03/13 10:08:18;;;;;;;16.25;11.82;;;12.60;75.00;;;;;;5025648;28;22846;-56
2022/03/13 10:10:44;;;;;;;17.05;12.63;;;12.80;73.90;;;;;;5038726;28;20037;-54
2022/03/13 10:13:13;;;;;;;19.38;12.38;;;13.00;73.60;;;;;;5016129;28;20102;-56
2022/03/13 10:15:47;;;;;;;17.35;12.75;;;13.10;72.80;;;;;;5020390;28;20515;-57
2022/03/13 10:18:18;;;;;;;18.95;12.43;;;13.20;72.50;;;;;;5029210;28;20339;-56
2022/03/13 10:20:46;;;;;;;18.63;12.90;;;13.30;72.50;;;;;;5061841;28;20052;-55
2022/03/13 10:23:16;;;;;;;16.55;13.10;;;13.50;71.00;;;;;;5044936;28;20036;-57
2022/03/13 10:25:43;;;;;;;16.92;13.50;;;13.60;71.40;;;;;;5058111;28;20094;-54
2022/03/13 10:28:24;;;;;;;17.88;13.48;;;13.70;71.60;;;;;;5044251;28;20044;-56
2022/03/13 10:30:59;;;;;;;19.80;14.25;;;13.70;71.20;;;;;;5041323;28;20068;-56
2022/03/13 10:33:48;;;;;;;17.05;12.30;;;13.70;70.70;;;;;;5034203;28;20044;-57
2022/03/13 10:36:16;;;;;;;15.80;11.98;;;13.70;70.40;;;;;;5043676;28;20523;-55
2022/03/13 10:38:43;;;;;;;16.63;12.63;;;13.60;70.20;;;;;;5042051;28;20052;-55
2022/03/13 10:41:10;;;;;;;16.55;13.10;;;13.60;70.00;;;;;;5051114;28;20051;-57
2022/03/13 10:43:47;;;;;;;21.17;14.15;;;13.50;70.10;;;;;;5027463;28;20040;-57
2022/03/13 10:46:36;;;;;;;19.45;13.20;;;13.60;69.30;;;;;;5059421;28;20043;-54
2022/03/13 10:49:04;;;;;;;17.95;12.82;;;13.60;69.60;;;;;;5040158;28;20044;-55
2022/03/13 10:51:45;;;;;;;16.20;12.48;;;13.70;70.50;;;;;;5035587;28;20036;-55
2022/03/13 10:54:27;;;;;;;17.75;12.82;;;14.00;69.40;;;;;;5057655;28;20041;-53
2022/03/13 10:57:08;;;;;;;17.60;13.80;;;14.30;69.90;;;;;;5028546;28;20037;-57
2022/03/13 10:59:34;;;;;;;16.67;12.20;;;14.50;66.60;;;;;;5043262;28;20079;-54
2022/03/13 11:02:17;;;;;;;17.80;13.02;;;14.60;66.80;;;;;;5051946;28;20033;-54
2022/03/13 11:04:55;;;;;;;19.02;12.48;;;14.70;66.10;;;;;;5046338;28;20072;-55
2022/03/13 11:07:23;;;;;;;15.77;12.32;;;14.80;66.90;;;;;;5034893;28;20554;-55
2022/03/13 11:09:49;;;;;;;16.10;12.48;;;14.80;65.70;;;;;;5044611;28;20099;-51
2022/03/13 11:12:21;;;;;;;20.80;13.73;;;14.90;64.40;;;;;;5027386;28;20539;-53
2022/03/13 11:15:00;;;;;;;17.98;12.75;;;15.00;65.20;;;;;;5058759;28;20051;-55
2022/03/13 11:17:32;;;;;;;17.58;13.20;;;15.00;66.00;;;;;;5049962;28;20048;-53
2022/03/13 11:19:59;;;;;;;17.33;13.00;;;15.20;65.20;;;;;;5024213;28;20254;-54
2022/03/13 11:22:27;;;;;;;19.67;13.38;;;15.30;65.00;;;;;;5008032;28;20056;-54
2022/03/13 11:25:00;;;;;;;18.42;12.73;;;15.40;65.20;;;;;;5020966;28;20116;-54
2022/03/13 11:27:26;;;;;;;18.33;14.00;;;15.40;65.20;;;;;;5015933;28;20255;-52
2022/03/13 11:29:54;;;;;;;16.50;13.05;;;15.40;64.30;;;;;;5019036;28;20242;-55
2022/03/13 11:32:43;;;;;;;17.50;14.07;;;15.20;63.40;;;;;;5042785;28;20042;-55
2022/03/13 11:35:12;;;;;;;18.42;14.10;;;14.90;63.50;;;;;;5025129;28;20173;-54
2022/03/13 11:37:38;;;;;;;16.30;12.48;;;14.80;64.70;;;;;;5024220;28;20036;-52
2022/03/13 11:40:07;;;;;;;17.55;13.68;;;14.90;64.60;;;;;;5006594;28;20044;-56
2022/03/13 11:42:47;;;;;;;19.35;13.60;;;15.00;65.40;;;;;;5042532;28;20044;-56
2022/03/13 11:45:29;;;;;;;17.90;13.88;;;15.30;65.00;;;;;;5028290;28;21535;-54
2022/03/13 11:48:21;;;;;;;17.80;13.15;;;15.50;64.80;;;;;;5009520;28;20634;-52
2022/03/13 11:50:48;;;;;;;17.25;13.48;;;15.80;65.40;;;;;;5012731;28;20283;-55
2022/03/13 11:53:20;;;;;;;16.88;14.50;;;16.00;65.20;;;;;;5021110;28;20048;-56
2022/03/13 11:56:09;;;;;;;17.60;13.27;;;16.10;64.60;;;;;;5011204;28;20055;-52
2022/03/13 11:58:48;;;;;;;21.90;14.50;;;16.20;64.10;;;;;;5039695;28;20070;-53
2022/03/13 12:01:20;;;;;;;17.38;14.10;;;16.20;62.90;;;;;;5049417;28;20041;-52
2022/03/13 12:04:02;;;;;;;18.40;14.57;;;16.20;61.30;;;;;;5041421;28;20530;-55
2022/03/13 12:06:48;;;;;;;19.90;12.98;;;16.20;62.10;;;;;;5043144;28;20166;-52
2022/03/13 12:09:16;;;;;;;15.85;13.02;;;16.30;63.00;;;;;;5046450;28;20124;-52
2022/03/13 12:11:58;;;;;;;19.02;14.27;;;16.30;63.10;;;;;;5064867;28;20052;-55
2022/03/13 12:15:10;;;;;;;17.67;13.85;;;16.30;61.70;;;;;;5064002;28;20093;-56
2022/03/13 12:17:47;;;;;;;16.08;12.50;;;16.20;62.10;;;;;;5053275;28;20045;-55
2022/03/13 12:20:24;;;;;;;16.95;12.57;;;15.80;62.60;;;;;;5058648;28;20076;-54
2022/03/13 12:22:53;;;;;;;17.15;12.73;;;15.70;63.60;;;;;;5044230;28;20099;-55
2022/03/13 12:25:25;;;;;;;17.20;13.10;;;15.50;63.60;;;;;;5047246;28;20055;-55
2022/03/13 12:27:51;;;;;;;16.67;12.77;;;15.40;65.20;;;;;;5043890;28;20047;-54
2022/03/13 12:30:29;;;;;;;14.23;11.55;;;15.50;65.40;;;;;;5060521;28;20072;-55
2022/03/13 12:33:17;;;;;;;18.25;13.98;;;15.50;63.70;;;;;;5034258;28;20606;-55
2022/03/13 12:36:01;;;;;;;21.58;13.90;;;15.40;64.40;;;;;;5038832;28;20067;-55
2022/03/13 12:38:32;;;;;;;16.15;11.82;;;15.50;65.10;;;;;;5039405;28;20141;-52